Time;durP1;ratioP1;P1;durP2;ratioP2;P2;SDS_P1;SDS_P2;PMS_P1;PMS_P2;Temp;Humidity;BMP_temperature;BMP_pressure;BME280_temperature;BME280_humidity;BME280_pressure;Samples;Min_cycle;Max_cycle;Signal;HPM_P1;HPM_P2
2021/01/16 00:00:57;;;;;;;15.10;9.17;;;-2.80;99.90;;;;;;2071984;28;20173;-69
2021/01/16 00:01:58;;;;;;;16.98;9.70;;;-2.80;99.90;;;;;;2072452;28;20190;-69
2021/01/16 00:02:58;;;;;;;16.80;9.50;;;-2.80;99.90;;;;;;2080603;28;20586;-69
2021/01/16 00:03:59;;;;;;;17.13;8.68;;;-2.80;99.90;;;;;;2081125;28;20228;-69
2021/01/16 00:05:00;;;;;;;18.43;9.50;;;-2.80;99.90;;;;;;2081124;28;20267;-69
2021/01/16 00:06:01;;;;;;;18.57;10.10;;;-2.80;99.90;;;;;;2080593;28;20178;-69
2021/01/16 00:07:01;;;;;;;15.20;9.55;;;-2.80;99.90;;;;;;2071966;28;20201;-69
2021/01/16 00:08:24;;;;;;;15.03;8.73;;;-2.80;99.90;;;;;;2072374;28;20190;-69
2021/01/16 00:09:24;;;;;;;15.93;9.13;;;-2.80;99.90;;;;;;2081046;28;20240;-69
2021/01/16 00:10:25;;;;;;;15.67;9.10;;;-2.70;99.90;;;;;;2081163;28;20183;-69
2021/01/16 00:11:26;;;;;;;16.37;9.07;;;-2.70;99.90;;;;;;2072015;28;20272;-69
2021/01/16 00:12:26;;;;;;;16.50;8.60;;;-2.70;99.90;;;;;;2072090;28;20257;-69
2021/01/16 00:13:33;;;;;;;18.33;10.30;;;-2.70;99.90;;;;;;2080455;28;20708;-69
2021/01/16 00:14:34;;;;;;;17.63;9.18;;;-2.80;99.90;;;;;;2072598;28;20702;-69
2021/01/16 00:15:35;;;;;;;15.60;9.27;;;-2.80;99.90;;;;;;2073919;28;20222;-69
2021/01/16 00:16:35;;;;;;;16.97;9.60;;;-2.80;99.90;;;;;;2082403;28;20178;-69
2021/01/16 00:17:36;;;;;;;18.57;9.97;;;-2.80;99.90;;;;;;2082203;28;20185;-69
2021/01/16 00:18:37;;;;;;;18.77;10.67;;;-2.80;99.90;;;;;;2082252;28;20190;-69
2021/01/16 00:19:38;;;;;;;18.02;10.25;;;-2.80;99.90;;;;;;2081608;28;20178;-69
2021/01/16 00:20:42;;;;;;;18.30;10.07;;;-2.80;99.90;;;;;;2081684;28;20186;-69
2021/01/16 00:21:43;;;;;;;26.15;9.90;;;-2.70;99.90;;;;;;2073305;28;20170;-68
2021/01/16 00:22:48;;;;;;;23.13;10.83;;;-2.80;99.90;;;;;;2073490;28;20284;-69
2021/01/16 00:23:49;;;;;;;17.13;8.98;;;-2.80;99.90;;;;;;2073414;28;20199;-69
2021/01/16 00:24:50;;;;;;;21.57;9.87;;;-2.80;99.90;;;;;;2073523;28;20642;-69
2021/01/16 00:25:51;;;;;;;19.20;10.13;;;-3.00;99.90;;;;;;2082237;28;20180;-69
2021/01/16 00:26:52;;;;;;;16.92;9.13;;;-3.00;99.90;;;;;;2082315;28;20185;-69
2021/01/16 00:27:53;;;;;;;13.00;8.20;;;-2.90;99.90;;;;;;2081619;28;20610;-69
2021/01/16 00:28:54;;;;;;;14.88;8.95;;;-2.90;99.90;;;;;;2081607;28;20223;-69
2021/01/16 00:29:54;;;;;;;15.93;8.73;;;-2.80;99.90;;;;;;2082106;28;20200;-69
2021/01/16 00:30:57;;;;;;;14.53;8.07;;;-2.80;99.90;;;;;;2082048;28;20170;-69
2021/01/16 00:31:57;;;;;;;16.23;8.23;;;-2.80;99.90;;;;;;2073404;28;20699;-69
2021/01/16 00:32:59;;;;;;;14.97;8.13;;;-2.80;99.90;;;;;;2073451;28;20205;-69
2021/01/16 00:33:59;;;;;;;17.75;8.63;;;-2.90;99.90;;;;;;2081934;28;20201;-68
2021/01/16 00:35:00;;;;;;;15.40;8.67;;;-2.90;99.90;;;;;;2082217;28;20703;-69
2021/01/16 00:36:04;;;;;;;15.30;8.20;;;-2.90;99.90;;;;;;2082100;28;20626;-69
2021/01/16 00:37:05;;;;;;;14.82;8.32;;;-2.90;99.90;;;;;;2081636;28;20180;-68
2021/01/16 00:38:05;;;;;;;16.58;8.48;;;-2.90;99.90;;;;;;2081604;28;20276;-69
2021/01/16 00:39:06;;;;;;;14.50;7.60;;;-2.90;99.90;;;;;;2081996;28;20182;-69
2021/01/16 00:40:10;;;;;;;13.47;8.23;;;-2.90;99.90;;;;;;2082100;28;20178;-69
2021/01/16 00:41:11;;;;;;;14.05;8.27;;;-2.90;99.90;;;;;;2073164;28;20642;-69
2021/01/16 00:42:11;;;;;;;14.63;9.10;;;-3.00;99.90;;;;;;2073339;28;20211;-69
2021/01/16 00:43:15;;;;;;;13.17;8.17;;;-3.00;99.90;;;;;;2082003;28;20652;-69
2021/01/16 00:44:16;;;;;;;11.93;8.00;;;-3.00;99.90;;;;;;2073302;28;20190;-69
2021/01/16 00:45:19;;;;;;;14.33;8.50;;;-2.90;99.90;;;;;;2073270;28;20552;-69
2021/01/16 00:46:19;;;;;;;17.33;9.15;;;-2.90;99.90;;;;;;2081506;28;20190;-68
2021/01/16 00:47:20;;;;;;;17.70;8.97;;;-2.90;99.90;;;;;;2081514;28;20181;-69
2021/01/16 00:48:23;;;;;;;13.87;8.30;;;-2.90;99.90;;;;;;2073223;28;20273;-69
2021/01/16 00:49:24;;;;;;;14.98;8.65;;;-2.90;99.90;;;;;;2073632;28;20173;-69
2021/01/16 00:50:25;;;;;;;14.07;8.47;;;-2.90;99.90;;;;;;2073126;28;20191;-68
2021/01/16 00:51:25;;;;;;;14.53;8.13;;;-2.90;99.90;;;;;;2073115;28;20612;-69
2021/01/16 00:52:26;;;;;;;12.57;8.30;;;-2.90;99.90;;;;;;2082012;28;20181;-68
2021/01/16 00:53:27;;;;;;;16.13;8.80;;;-2.80;99.90;;;;;;2081980;28;20701;-68
2021/01/16 00:54:27;;;;;;;13.07;8.10;;;-2.80;99.90;;;;;;2081943;28;20201;-68
2021/01/16 00:55:28;;;;;;;14.00;7.80;;;-2.80;99.90;;;;;;2081319;28;20184;-69
2021/01/16 00:56:29;;;;;;;15.55;8.77;;;-2.80;99.90;;;;;;2081346;28;20180;-69
2021/01/16 00:57:30;;;;;;;13.50;8.07;;;-2.70;99.90;;;;;;2080583;28;20665;-69
2021/01/16 00:58:30;;;;;;;15.40;8.63;;;-2.80;99.90;;;;;;2067109;28;20285;-69
2021/01/16 00:59:31;;;;;;;14.33;7.80;;;-2.70;99.90;;;;;;2065012;28;20834;-69
2021/01/16 01:00:32;;;;;;;14.60;8.53;;;-2.80;99.90;;;;;;2073775;28;20261;-69
2021/01/16 01:01:35;;;;;;;13.87;8.20;;;-2.80;99.90;;;;;;2073270;28;20261;-69
2021/01/16 01:02:41;;;;;;;15.38;8.10;;;-2.80;99.90;;;;;;2073715;28;20177;-69
2021/01/16 01:03:42;;;;;;;15.93;8.30;;;-2.80;99.90;;;;;;2073916;28;20201;-69
2021/01/16 01:04:43;;;;;;;13.63;7.70;;;-2.80;99.90;;;;;;2073796;28;20190;-69
2021/01/16 01:05:44;;;;;;;14.20;8.50;;;-2.80;99.90;;;;;;2073830;28;20190;-69
2021/01/16 01:06:44;;;;;;;12.50;7.87;;;-2.80;99.90;;;;;;2056842;28;20191;-68
2021/01/16 01:07:47;;;;;;;11.77;7.40;;;-2.80;99.90;;;;;;2056971;28;20640;-69
2021/01/16 01:08:48;;;;;;;15.30;7.95;;;-2.80;99.90;;;;;;2065109;28;20183;-68
2021/01/16 01:09:49;;;;;;;15.30;8.20;;;-2.80;99.90;;;;;;2065068;28;20248;-68
2021/01/16 01:10:49;;;;;;;14.63;7.50;;;-2.80;99.90;;;;;;2073749;28;20282;-68
2021/01/16 01:11:50;;;;;;;14.30;8.03;;;-2.80;99.90;;;;;;2073594;28;20270;-68
2021/01/16 01:12:51;;;;;;;15.23;8.07;;;-2.80;99.90;;;;;;2057033;28;20218;-68
2021/01/16 01:13:52;;;;;;;14.05;8.45;;;-2.90;99.90;;;;;;2057108;28;20202;-68
2021/01/16 01:14:53;;;;;;;12.77;7.43;;;-2.80;99.90;;;;;;2065185;28;20187;-68
2021/01/16 01:15:53;;;;;;;14.23;7.77;;;-2.80;99.90;;;;;;2056870;28;20183;-68
2021/01/16 01:16:54;;;;;;;13.77;7.53;;;-2.80;99.90;;;;;;2065075;28;20186;-68
2021/01/16 01:17:58;;;;;;;14.77;8.43;;;-2.80;99.90;;;;;;2073534;28;20217;-68
2021/01/16 01:18:59;;;;;;;12.73;7.47;;;-2.80;99.90;;;;;;2065053;28;20179;-68
2021/01/16 01:20:00;;;;;;;13.00;7.10;;;-2.80;99.90;;;;;;2065002;28;20189;-68
2021/01/16 01:21:00;;;;;;;12.67;7.87;;;-2.90;99.90;;;;;;2073424;28;20231;-68
2021/01/16 01:22:01;;;;;;;14.70;7.97;;;-2.90;99.90;;;;;;2073434;28;20178;-68
2021/01/16 01:23:02;;;;;;;13.07;7.60;;;-2.90;99.90;;;;;;2073533;28;20269;-68
2021/01/16 01:24:04;;;;;;;10.40;6.53;;;-2.90;99.90;;;;;;2073549;28;20281;-68
2021/01/16 01:25:06;;;;;;;10.82;7.25;;;-3.00;99.90;;;;;;2073719;28;20194;-68
2021/01/16 01:26:07;;;;;;;13.00;7.60;;;-2.90;99.90;;;;;;2073383;28;20178;-68
2021/01/16 01:27:08;;;;;;;11.27;5.97;;;-2.90;99.90;;;;;;2065086;28;20665;-68
2021/01/16 01:28:09;;;;;;;9.03;5.93;;;-3.00;99.90;;;;;;2064748;28;20211;-68
2021/01/16 01:29:09;;;;;;;11.03;6.70;;;-3.00;99.90;;;;;;2073683;28;20194;-68
2021/01/16 01:30:11;;;;;;;11.03;6.57;;;-3.00;99.90;;;;;;2073553;28;20182;-69
2021/01/16 01:31:12;;;;;;;11.00;6.70;;;-3.00;99.90;;;;;;2073342;28;20193;-68
2021/01/16 01:32:12;;;;;;;9.73;6.33;;;-3.00;99.90;;;;;;2073629;28;20301;-68
2021/01/16 01:33:15;;;;;;;10.97;6.50;;;-3.10;99.90;;;;;;2073494;28;20244;-68
2021/01/16 01:34:16;;;;;;;11.02;6.72;;;-3.00;99.90;;;;;;2064767;28;20759;-68
2021/01/16 01:35:18;;;;;;;9.03;6.13;;;-3.00;99.90;;;;;;2064976;28;20178;-68
2021/01/16 01:36:19;;;;;;;11.07;5.93;;;-3.00;99.90;;;;;;2064906;28;20705;-68
2021/01/16 01:37:20;;;;;;;11.37;6.07;;;-3.00;99.90;;;;;;2064972;28;20178;-68
2021/01/16 01:38:21;;;;;;;10.90;6.47;;;-2.90;99.90;;;;;;2073511;28;20670;-68
2021/01/16 01:39:21;;;;;;;12.20;7.07;;;-2.90;99.90;;;;;;2073528;28;20185;-68
2021/01/16 01:40:26;;;;;;;11.20;6.50;;;-2.90;99.90;;;;;;2073541;28;20200;-68
2021/01/16 01:41:27;;;;;;;11.65;6.70;;;-2.90;99.90;;;;;;2064724;28;20174;-69
2021/01/16 01:42:27;;;;;;;11.93;6.70;;;-2.90;99.90;;;;;;2064901;28;20181;-68
2021/01/16 01:43:28;;;;;;;9.43;5.90;;;-2.90;99.90;;;;;;2073497;28;20327;-68
2021/01/16 01:44:29;;;;;;;8.37;5.67;;;-2.80;99.90;;;;;;2073438;28;20169;-68
2021/01/16 01:45:31;;;;;;;10.10;5.70;;;-2.90;99.90;;;;;;2064903;28;20183;-68
2021/01/16 01:46:37;;;;;;;8.32;5.35;;;-3.00;99.90;;;;;;2057041;28;20191;-68
2021/01/16 01:47:40;;;;;;;8.32;5.10;;;-3.00;99.90;;;;;;2057538;28;20195;-68
2021/01/16 01:48:41;;;;;;;8.90;5.47;;;-3.00;99.90;;;;;;2057175;28;20183;-68
2021/01/16 01:49:44;;;;;;;8.40;5.38;;;-2.90;99.90;;;;;;2056849;28;20658;-68
2021/01/16 01:50:45;;;;;;;9.82;5.50;;;-3.00;99.90;;;;;;2064977;28;20191;-68
2021/01/16 01:51:46;;;;;;;9.43;5.20;;;-2.90;99.90;;;;;;2064711;28;20202;-68
2021/01/16 01:52:48;;;;;;;8.93;5.70;;;-2.90;99.90;;;;;;2064638;28;20178;-68
2021/01/16 01:53:51;;;;;;;8.55;5.60;;;-2.90;99.90;;;;;;2064746;28;20292;-68
2021/01/16 01:54:52;;;;;;;9.45;5.20;;;-2.90;99.90;;;;;;2064731;28;20241;-68
2021/01/16 01:55:57;;;;;;;7.90;5.00;;;-2.90;99.90;;;;;;2064768;28;20265;-68
2021/01/16 01:56:59;;;;;;;9.18;5.40;;;-3.00;99.90;;;;;;2057064;28;20191;-68
2021/01/16 01:58:01;;;;;;;9.07;5.78;;;-3.00;99.90;;;;;;2056894;28;20191;-68
2021/01/16 01:59:03;;;;;;;8.32;5.07;;;-2.90;99.90;;;;;;2064851;28;20182;-68
2021/01/16 02:00:09;;;;;;;9.43;5.60;;;-2.90;99.90;;;;;;2064868;28;20233;-68
2021/01/16 02:01:11;;;;;;;10.02;5.70;;;-2.90;99.90;;;;;;2065047;28;20739;-68
2021/01/16 02:02:15;;;;;;;9.00;5.25;;;-2.90;99.90;;;;;;2073484;28;20664;-68
2021/01/16 02:03:16;;;;;;;10.20;6.32;;;-2.90;99.90;;;;;;2064570;28;20704;-69
2021/01/16 02:04:22;;;;;;;8.63;5.90;;;-2.90;99.90;;;;;;2064729;28;20175;-68
2021/01/16 02:05:23;;;;;;;10.43;5.68;;;-2.90;99.90;;;;;;2073355;28;20269;-68
2021/01/16 02:06:23;;;;;;;10.47;5.97;;;-2.90;99.90;;;;;;2064577;28;20193;-68
2021/01/16 02:07:29;;;;;;;7.70;5.30;;;-3.00;99.90;;;;;;2064625;28;20187;-68
2021/01/16 02:08:29;;;;;;;9.60;5.90;;;-3.00;99.90;;;;;;2073449;28;20163;-68
2021/01/16 02:09:30;;;;;;;9.90;5.37;;;-3.00;99.90;;;;;;2073238;28;20552;-68
2021/01/16 02:10:33;;;;;;;9.53;6.03;;;-3.00;99.90;;;;;;2073363;28;20174;-68
2021/01/16 02:11:33;;;;;;;9.88;6.15;;;-3.00;99.90;;;;;;2064093;28;20183;-68
2021/01/16 02:12:35;;;;;;;9.60;6.10;;;-3.00;99.90;;;;;;2056685;28;20661;-68
2021/01/16 02:13:36;;;;;;;8.70;5.72;;;-3.00;99.90;;;;;;2056412;28;20223;-68
2021/01/16 02:14:37;;;;;;;8.97;5.77;;;-3.00;99.90;;;;;;2056554;28;20654;-68
2021/01/16 02:16:03;;;;;;;8.17;5.67;;;-3.10;99.90;;;;;;2064336;28;20418;-68
2021/01/16 02:17:05;;;;;;;8.20;5.47;;;-3.10;99.90;;;;;;2064334;28;20402;-68
2021/01/16 02:18:36;;;;;;;9.20;5.93;;;-3.10;99.90;;;;;;2064267;28;20176;-68
2021/01/16 02:20:06;;;;;;;9.32;5.70;;;-3.00;99.90;;;;;;2064538;28;20171;-69
2021/01/16 02:21:07;;;;;;;8.35;4.80;;;-3.00;99.90;;;;;;2064258;28;20167;-68
2021/01/16 02:22:09;;;;;;;9.18;5.68;;;-3.00;99.90;;;;;;2064369;28;20175;-68
2021/01/16 02:23:12;;;;;;;10.80;5.90;;;-3.10;99.90;;;;;;2064173;28;20198;-68
2021/01/16 02:24:18;;;;;;;9.07;5.65;;;-3.00;99.90;;;;;;2064684;28;20186;-68
2021/01/16 02:25:37;;;;;;;9.68;6.05;;;-3.00;99.90;;;;;;2064496;28;20234;-68
2021/01/16 02:27:14;;;;;;;9.77;5.63;;;-3.00;99.90;;;;;;2064408;28;20600;-68
2021/01/16 02:28:22;;;;;;;8.73;5.60;;;-2.90;99.90;;;;;;2069366;28;20186;-68
2021/01/16 02:29:25;;;;;;;10.52;6.35;;;-3.00;99.90;;;;;;2064457;28;20173;-68
2021/01/16 02:30:26;;;;;;;9.45;5.25;;;-3.00;99.90;;;;;;2064350;28;20182;-68
2021/01/16 02:31:40;;;;;;;9.90;5.97;;;-3.00;99.90;;;;;;2064531;28;20586;-69
2021/01/16 02:32:46;;;;;;;9.80;5.50;;;-3.00;99.90;;;;;;2064369;28;20297;-68
2021/01/16 02:33:47;;;;;;;9.85;6.13;;;-3.00;99.90;;;;;;2056887;28;20210;-68
2021/01/16 02:34:51;;;;;;;10.45;6.28;;;-3.00;99.90;;;;;;2056521;28;20270;-68
2021/01/16 02:36:21;;;;;;;9.60;5.78;;;-3.00;99.90;;;;;;2048754;28;20191;-68
2021/01/16 02:38:32;;;;;;;8.63;5.47;;;-3.00;99.90;;;;;;2063473;28;20184;-69
2021/01/16 02:39:57;;;;;;;9.02;5.35;;;-3.00;99.90;;;;;;2036824;28;20196;-68
2021/01/16 02:41:07;;;;;;;8.90;5.63;;;-3.00;99.90;;;;;;2064121;28;20216;-68
2021/01/16 02:42:36;;;;;;;12.85;6.70;;;-3.00;99.90;;;;;;2057689;28;20624;-68
2021/01/16 02:43:44;;;;;;;10.90;6.63;;;-3.00;99.90;;;;;;2059762;28;20225;-68
2021/01/16 02:44:58;;;;;;;13.65;7.72;;;-3.20;99.90;;;;;;2065110;28;20646;-68
2021/01/16 02:46:19;;;;;;;11.30;7.30;;;-3.20;99.90;;;;;;2064381;28;20198;-68
2021/01/16 02:47:32;;;;;;;12.30;7.47;;;-3.10;99.90;;;;;;2064316;28;20185;-68
2021/01/16 02:49:04;;;;;;;13.45;7.47;;;-3.10;99.90;;;;;;2058031;28;20161;-68
2021/01/16 02:50:08;;;;;;;11.65;7.28;;;-3.10;99.90;;;;;;2060335;28;20728;-68
2021/01/16 02:51:15;;;;;;;13.68;7.95;;;-3.10;99.90;;;;;;2064341;28;20563;-68
2021/01/16 02:52:19;;;;;;;12.35;7.50;;;-3.10;99.90;;;;;;2064145;28;20634;-68
2021/01/16 02:53:23;;;;;;;15.35;8.25;;;-3.10;99.90;;;;;;2064089;28;20207;-68
2021/01/16 02:54:25;;;;;;;12.90;8.00;;;-3.10;99.90;;;;;;2064435;28;20245;-68
2021/01/16 02:55:26;;;;;;;11.45;7.30;;;-3.00;99.90;;;;;;2056146;28;20891;-68
2021/01/16 02:56:30;;;;;;;12.90;8.43;;;-3.00;99.90;;;;;;2056316;28;20186;-68
2021/01/16 02:57:31;;;;;;;11.50;7.35;;;-3.00;99.90;;;;;;2064194;28;20190;-68
2021/01/16 02:58:31;;;;;;;12.33;7.47;;;-3.00;99.90;;;;;;2064280;28;20175;-68
2021/01/16 02:59:43;;;;;;;12.43;7.77;;;-3.10;99.90;;;;;;2072868;28;20262;-68
2021/01/16 03:00:46;;;;;;;12.93;7.78;;;-3.10;99.90;;;;;;2064100;28;20183;-68
2021/01/16 03:01:47;;;;;;;14.07;8.43;;;-3.10;99.90;;;;;;2063971;28;20226;-68
2021/01/16 03:02:48;;;;;;;13.38;7.47;;;-3.10;99.90;;;;;;2064313;28;20191;-68
2021/01/16 03:03:49;;;;;;;12.43;7.77;;;-3.10;99.90;;;;;;2074840;28;20956;-68
2021/01/16 03:04:50;;;;;;;11.73;7.73;;;-3.10;99.90;;;;;;2073175;28;20955;-68
2021/01/16 03:05:50;;;;;;;11.13;7.03;;;-3.10;99.90;;;;;;2072776;28;20728;-68
2021/01/16 03:06:51;;;;;;;11.80;7.87;;;-3.10;99.90;;;;;;2072824;28;20184;-68
2021/01/16 03:07:52;;;;;;;12.50;7.77;;;-3.10;99.90;;;;;;2064117;28;20188;-68
2021/01/16 03:08:56;;;;;;;11.87;7.70;;;-3.10;99.90;;;;;;2064245;28;20709;-68
2021/01/16 03:09:59;;;;;;;12.82;7.78;;;-3.10;99.90;;;;;;2063993;28;20229;-68
2021/01/16 03:11:00;;;;;;;13.25;8.30;;;-3.10;99.90;;;;;;2056227;28;20185;-68
2021/01/16 03:12:02;;;;;;;13.77;7.72;;;-3.10;99.90;;;;;;2056026;28;20181;-68
2021/01/16 03:13:03;;;;;;;13.68;8.20;;;-3.10;99.90;;;;;;2056305;28;20184;-68
2021/01/16 03:14:08;;;;;;;15.40;8.73;;;-3.10;99.90;;;;;;2064030;28;20213;-68
2021/01/16 03:15:13;;;;;;;13.52;8.18;;;-3.00;99.90;;;;;;2064122;28;20178;-68
2021/01/16 03:16:26;;;;;;;11.40;7.45;;;-3.00;99.90;;;;;;2064115;28;20182;-68
2021/01/16 03:17:48;;;;;;;12.40;7.38;;;-3.00;99.90;;;;;;2057751;28;20191;-68
2021/01/16 03:18:55;;;;;;;12.45;7.55;;;-3.10;99.90;;;;;;2067171;28;20179;-68
2021/01/16 03:19:56;;;;;;;13.10;7.28;;;-3.00;99.90;;;;;;2072925;28;20162;-68
2021/01/16 03:21:02;;;;;;;12.88;7.75;;;-3.00;99.90;;;;;;2063719;28;20190;-68
2021/01/16 03:22:16;;;;;;;9.55;6.72;;;-3.00;99.90;;;;;;2064776;28;20233;-67
2021/01/16 03:23:16;;;;;;;12.73;7.40;;;-3.00;99.90;;;;;;2072642;28;20168;-68
2021/01/16 03:24:17;;;;;;;12.70;7.13;;;-3.00;99.90;;;;;;2072811;28;20679;-68
2021/01/16 03:25:24;;;;;;;12.20;7.87;;;-2.90;99.90;;;;;;2072808;28;20198;-68
2021/01/16 03:26:25;;;;;;;13.55;7.75;;;-2.90;99.90;;;;;;2072825;28;20171;-68
2021/01/16 03:27:26;;;;;;;12.20;7.27;;;-2.90;99.90;;;;;;2072863;28;20211;-68
2021/01/16 03:28:27;;;;;;;14.15;7.10;;;-3.00;99.90;;;;;;2072759;28;20181;-68
2021/01/16 03:29:28;;;;;;;12.20;7.53;;;-3.00;99.90;;;;;;2072753;28;20212;-68
2021/01/16 03:30:29;;;;;;;11.37;7.10;;;-3.00;99.90;;;;;;2072830;28;20257;-68
2021/01/16 03:31:29;;;;;;;12.77;7.23;;;-3.00;99.90;;;;;;2063885;28;20237;-68
2021/01/16 03:32:30;;;;;;;13.70;8.00;;;-3.10;99.90;;;;;;2064215;28;20289;-68
2021/01/16 03:33:31;;;;;;;13.00;7.57;;;-3.10;99.90;;;;;;2072451;28;20288;-68
2021/01/16 03:34:32;;;;;;;14.97;8.57;;;-3.10;99.90;;;;;;2072878;28;20175;-68
2021/01/16 03:35:32;;;;;;;12.03;7.87;;;-3.10;99.90;;;;;;2072736;28;20797;-67
2021/01/16 03:36:33;;;;;;;12.50;7.80;;;-3.10;99.90;;;;;;2072812;28;20169;-68
2021/01/16 03:37:34;;;;;;;11.07;7.17;;;-3.10;99.90;;;;;;2072692;28;20202;-68
2021/01/16 03:38:35;;;;;;;12.57;8.17;;;-3.20;99.90;;;;;;2072730;28;20212;-68
2021/01/16 03:39:36;;;;;;;10.30;6.97;;;-3.20;99.90;;;;;;2072493;28;20175;-69
2021/01/16 03:40:37;;;;;;;11.50;7.20;;;-3.20;99.90;;;;;;2064363;28;20278;-69
2021/01/16 03:41:37;;;;;;;10.70;7.60;;;-3.20;99.90;;;;;;2071857;28;20231;-69
2021/01/16 03:42:39;;;;;;;11.60;7.60;;;-3.20;99.90;;;;;;2080127;28;20220;-69
2021/01/16 03:43:39;;;;;;;14.57;7.53;;;-3.10;99.90;;;;;;2072093;28;20295;-69
2021/01/16 03:44:40;;;;;;;12.90;8.17;;;-3.10;99.90;;;;;;2072021;28;20181;-69
2021/01/16 03:45:41;;;;;;;12.50;7.80;;;-3.10;99.90;;;;;;2080928;28;20182;-69
2021/01/16 03:46:42;;;;;;;12.27;7.23;;;-3.20;99.90;;;;;;2080891;28;20190;-69
2021/01/16 03:47:42;;;;;;;13.00;8.13;;;-3.20;99.90;;;;;;2080865;28;20197;-69
2021/01/16 03:48:43;;;;;;;13.03;8.43;;;-3.20;99.90;;;;;;2071960;28;20198;-69
2021/01/16 03:49:44;;;;;;;12.73;8.07;;;-3.10;99.90;;;;;;2071910;28;20297;-69
2021/01/16 03:50:44;;;;;;;10.00;6.93;;;-3.00;99.90;;;;;;2080939;28;20326;-68
2021/01/16 03:51:45;;;;;;;11.90;7.17;;;-3.10;99.90;;;;;;2071856;28;20240;-69
2021/01/16 03:52:46;;;;;;;13.40;8.13;;;-3.10;99.90;;;;;;2072172;28;20182;-69
2021/01/16 03:53:47;;;;;;;11.63;7.77;;;-3.10;99.90;;;;;;2080724;28;20723;-69
2021/01/16 03:54:48;;;;;;;12.43;8.00;;;-3.10;99.90;;;;;;2080857;28;20187;-69
2021/01/16 03:55:49;;;;;;;13.10;8.30;;;-3.10;99.90;;;;;;2071939;28;20236;-69
2021/01/16 03:56:49;;;;;;;14.10;8.07;;;-3.10;99.90;;;;;;2064015;28;20187;-69
2021/01/16 03:57:50;;;;;;;12.27;7.83;;;-3.00;99.90;;;;;;2063825;28;20175;-69
2021/01/16 03:58:51;;;;;;;13.13;7.83;;;-3.00;99.90;;;;;;2072151;28;20638;-69
2021/01/16 03:59:52;;;;;;;12.00;7.70;;;-3.00;99.90;;;;;;2080871;28;20271;-69
2021/01/16 04:00:53;;;;;;;12.15;7.80;;;-3.00;99.90;;;;;;2071774;28;20178;-69
2021/01/16 04:01:54;;;;;;;12.63;7.67;;;-3.00;99.90;;;;;;2071979;28;20186;-69
2021/01/16 04:02:55;;;;;;;13.43;8.10;;;-3.10;99.90;;;;;;2080329;28;20190;-69
2021/01/16 04:03:55;;;;;;;13.97;8.20;;;-3.10;99.90;;;;;;2080102;28;20221;-69
2021/01/16 04:04:56;;;;;;;12.70;7.30;;;-3.10;99.90;;;;;;2080864;28;20656;-69
2021/01/16 04:05:57;;;;;;;12.83;7.63;;;-3.20;99.90;;;;;;2080650;28;20210;-69
2021/01/16 04:06:57;;;;;;;12.27;8.37;;;-3.20;99.90;;;;;;2080076;28;20210;-69
2021/01/16 04:07:58;;;;;;;12.73;8.03;;;-3.20;99.90;;;;;;2080242;28;20637;-69
2021/01/16 04:08:59;;;;;;;12.70;7.57;;;-3.20;99.90;;;;;;2080831;28;20181;-69
2021/01/16 04:10:00;;;;;;;12.23;7.57;;;-3.20;99.90;;;;;;2072067;28;20182;-69
2021/01/16 04:11:00;;;;;;;13.20;7.43;;;-3.20;99.90;;;;;;2063864;28;20183;-69
2021/01/16 04:12:01;;;;;;;14.13;7.60;;;-3.20;99.90;;;;;;2071841;28;20186;-69
2021/01/16 04:13:02;;;;;;;10.50;6.93;;;-3.30;99.90;;;;;;2080763;28;20179;-69
2021/01/16 04:14:03;;;;;;;12.67;7.23;;;-3.30;99.90;;;;;;2071921;28;20702;-69
2021/01/16 04:15:05;;;;;;;13.03;7.60;;;-3.30;99.90;;;;;;2063933;28;20281;-69
2021/01/16 04:16:06;;;;;;;11.52;7.78;;;-3.30;99.90;;;;;;2072124;28;20433;-69
2021/01/16 04:17:08;;;;;;;13.68;8.35;;;-3.40;99.90;;;;;;2080644;28;20210;-69
2021/01/16 04:18:12;;;;;;;13.13;8.00;;;-3.40;99.90;;;;;;2071922;28;20178;-69
2021/01/16 04:19:12;;;;;;;14.95;8.45;;;-3.40;99.90;;;;;;2072333;28;20244;-70
2021/01/16 04:20:13;;;;;;;12.37;8.00;;;-3.40;99.90;;;;;;2080803;28;20240;-69
2021/01/16 04:21:14;;;;;;;14.07;8.43;;;-3.30;99.90;;;;;;2080726;28;20189;-69
2021/01/16 04:22:14;;;;;;;13.53;7.97;;;-3.30;99.90;;;;;;2080716;28;20516;-69
2021/01/16 04:23:15;;;;;;;15.20;8.57;;;-3.40;99.90;;;;;;2080783;28;20178;-69
2021/01/16 04:24:16;;;;;;;13.13;7.90;;;-3.40;99.90;;;;;;2080737;28;20529;-69
2021/01/16 04:25:17;;;;;;;13.93;8.47;;;-3.40;99.90;;;;;;2080868;28;20184;-69
2021/01/16 04:26:17;;;;;;;13.17;8.30;;;-3.40;99.90;;;;;;2080784;28;20260;-69
2021/01/16 04:27:18;;;;;;;12.63;7.70;;;-3.40;99.90;;;;;;2072176;28;20198;-69
2021/01/16 04:28:19;;;;;;;11.97;7.23;;;-3.40;99.90;;;;;;2071966;28;20642;-69
2021/01/16 04:29:20;;;;;;;12.25;7.70;;;-3.30;99.90;;;;;;2080812;28;20181;-69
2021/01/16 04:30:21;;;;;;;10.98;6.95;;;-3.30;99.90;;;;;;2072080;28;20182;-70
2021/01/16 04:31:22;;;;;;;11.57;7.10;;;-3.30;99.90;;;;;;2071844;28;20237;-69
2021/01/16 04:32:23;;;;;;;12.57;7.67;;;-3.30;99.90;;;;;;2080710;28;20200;-69
2021/01/16 04:33:24;;;;;;;13.20;8.53;;;-3.30;99.90;;;;;;2080449;28;20210;-69
2021/01/16 04:34:24;;;;;;;13.40;7.50;;;-3.30;99.90;;;;;;2063751;28;20188;-69
2021/01/16 04:35:25;;;;;;;13.23;8.10;;;-3.30;99.90;;;;;;2055900;28;20169;-69
2021/01/16 04:36:26;;;;;;;15.40;8.73;;;-3.30;99.90;;;;;;2072099;28;20682;-69
2021/01/16 04:37:26;;;;;;;13.27;7.73;;;-3.30;99.90;;;;;;2080664;28;20205;-69
2021/01/16 04:38:27;;;;;;;11.93;7.73;;;-3.20;99.90;;;;;;2080564;28;20181;-69
2021/01/16 04:39:28;;;;;;;14.03;8.77;;;-3.20;99.90;;;;;;2080620;28;20284;-69
2021/01/16 04:40:29;;;;;;;13.07;8.30;;;-3.20;99.90;;;;;;2080708;28;20191;-71
2021/01/16 04:41:32;;;;;;;13.45;8.45;;;-3.20;99.90;;;;;;2071628;28;20186;-69
2021/01/16 04:42:33;;;;;;;15.40;8.27;;;-3.30;99.90;;;;;;2064094;28;20227;-69
2021/01/16 04:43:35;;;;;;;14.10;8.48;;;-3.30;99.90;;;;;;2071862;28;20693;-69
2021/01/16 04:44:35;;;;;;;13.30;7.57;;;-3.30;99.90;;;;;;2071772;28;20179;-69
2021/01/16 04:45:37;;;;;;;12.63;7.70;;;-3.20;99.90;;;;;;2055648;28;20193;-69
2021/01/16 04:46:38;;;;;;;14.10;7.88;;;-3.20;99.90;;;;;;2063990;28;20280;-69
2021/01/16 04:47:45;;;;;;;11.73;7.50;;;-3.40;99.90;;;;;;2071910;28;20178;-69
2021/01/16 04:49:01;;;;;;;13.43;7.78;;;-3.40;99.90;;;;;;2072849;28;20208;-69
2021/01/16 04:50:02;;;;;;;13.82;8.23;;;-3.40;99.90;;;;;;2071847;28;20174;-69
2021/01/16 04:51:05;;;;;;;12.63;8.13;;;-3.40;99.90;;;;;;2063642;28;20720;-69
2021/01/16 04:52:07;;;;;;;12.93;7.90;;;-3.40;99.90;;;;;;2072136;28;20190;-69
2021/01/16 04:53:09;;;;;;;14.38;8.05;;;-3.40;99.90;;;;;;2079992;28;20186;-69
2021/01/16 04:54:16;;;;;;;12.88;8.05;;;-3.40;99.90;;;;;;2071755;28;20193;-69
2021/01/16 04:55:19;;;;;;;13.10;7.97;;;-3.40;99.90;;;;;;2064700;28;20159;-69
2021/01/16 04:56:20;;;;;;;13.43;8.10;;;-3.40;99.90;;;;;;2064068;28;20178;-69
2021/01/16 04:57:24;;;;;;;13.75;8.10;;;-3.40;99.90;;;;;;2071951;28;20186;-69
2021/01/16 04:58:25;;;;;;;14.27;8.68;;;-3.40;99.90;;;;;;2080488;28;20674;-69
2021/01/16 04:59:26;;;;;;;13.13;7.88;;;-3.40;99.90;;;;;;2069931;28;20622;-69
2021/01/16 05:00:31;;;;;;;14.33;7.87;;;-3.50;99.90;;;;;;2071503;28;20189;-69
2021/01/16 05:01:32;;;;;;;12.25;7.55;;;-3.60;99.90;;;;;;2082111;28;20532;-69
2021/01/16 05:02:37;;;;;;;13.30;8.13;;;-3.60;99.90;;;;;;2082182;28;20280;-69
2021/01/16 05:03:44;;;;;;;14.35;8.48;;;-3.70;99.90;;;;;;2082052;28;20204;-69
2021/01/16 05:04:49;;;;;;;16.75;9.00;;;-3.70;99.90;;;;;;2082258;28;20181;-69
2021/01/16 05:05:52;;;;;;;14.90;8.63;;;-3.80;99.90;;;;;;2082080;28;20173;-69
2021/01/16 05:06:54;;;;;;;13.18;7.53;;;-3.70;99.90;;;;;;2073492;28;20262;-69
2021/01/16 05:07:56;;;;;;;14.77;8.25;;;-3.70;99.90;;;;;;2073521;28;20573;-69
2021/01/16 05:08:59;;;;;;;13.40;7.65;;;-3.70;99.90;;;;;;2082273;28;20268;-69
2021/01/16 05:10:02;;;;;;;15.00;8.38;;;-3.80;99.90;;;;;;2082072;28;20184;-69
2021/01/16 05:11:06;;;;;;;16.08;8.63;;;-3.80;99.90;;;;;;2073085;28;20193;-69
2021/01/16 05:12:19;;;;;;;16.88;8.57;;;-3.90;99.90;;;;;;2073317;28;20265;-69
2021/01/16 05:13:30;;;;;;;13.13;7.60;;;-4.00;99.90;;;;;;2074928;28;20195;-69
2021/01/16 05:14:43;;;;;;;14.88;8.50;;;-4.10;99.90;;;;;;2082100;28;20165;-69
2021/01/16 05:15:46;;;;;;;14.18;8.15;;;-4.20;99.90;;;;;;2073232;28;20159;-69
2021/01/16 05:16:53;;;;;;;13.48;7.93;;;-4.20;99.90;;;;;;2065094;28;20182;-69
2021/01/16 05:18:18;;;;;;;15.77;8.18;;;-4.30;99.90;;;;;;2065940;28;20179;-69
2021/01/16 05:19:31;;;;;;;13.25;7.28;;;-4.40;99.90;;;;;;2076723;28;20166;-69
2021/01/16 05:20:37;;;;;;;12.63;7.20;;;-4.60;99.90;;;;;;2073123;28;20248;-69
2021/01/16 05:21:38;;;;;;;16.33;8.15;;;-4.60;99.90;;;;;;2072840;28;20216;-69
2021/01/16 05:22:39;;;;;;;16.17;8.93;;;-4.70;99.90;;;;;;2073050;28;20700;-69
2021/01/16 05:23:44;;;;;;;13.60;7.47;;;-4.80;99.90;;;;;;2065045;28;20206;-69
2021/01/16 05:24:44;;;;;;;13.10;8.00;;;-4.90;99.90;;;;;;2065436;28;20190;-69
2021/01/16 05:25:53;;;;;;;14.30;8.17;;;-5.00;99.90;;;;;;2073147;28;20236;-69
2021/01/16 05:26:53;;;;;;;16.10;8.27;;;-5.10;99.90;;;;;;2081704;28;20181;-69